Time;durP1;ratioP1;P1;durP2;ratioP2;P2;SDS_P1;SDS_P2;PMS_P1;PMS_P2;Temp;Humidity;BMP_temperature;BMP_pressure;BME280_temperature;BME280_humidity;BME280_pressure;Samples;Min_cycle;Max_cycle;Signal;HPM_P1;HPM_P2
2023/08/09 00:01:34;;;;;;;5.13;2.20;;;13.60;99.90;;;;;;4967394;28;20093;-79
2023/08/09 00:04:09;;;;;;;2.53;2.03;;;13.60;99.90;;;;;;4990265;28;20527;-80
2023/08/09 00:06:34;;;;;;;3.67;1.83;;;13.70;99.90;;;;;;4986034;28;20597;-81
2023/08/09 00:09:00;;;;;;;5.70;2.08;;;13.70;99.90;;;;;;4987393;28;20053;-82
2023/08/09 00:11:26;;;;;;;1.75;1.65;;;13.70;99.90;;;;;;4991541;28;20165;-81
2023/08/09 00:13:52;;;;;;;2.85;1.80;;;13.70;99.90;;;;;;4990485;28;20026;-81
2023/08/09 00:16:17;;;;;;;3.75;1.63;;;13.70;99.90;;;;;;4990172;28;20399;-81
2023/08/09 00:18:43;;;;;;;3.53;1.77;;;13.70;99.90;;;;;;4991973;28;20093;-80
2023/08/09 00:21:09;;;;;;;2.45;1.80;;;13.70;99.90;;;;;;4991349;28;20542;-79
2023/08/09 00:23:34;;;;;;;4.65;2.53;;;13.70;99.90;;;;;;4994788;28;20030;-80
2023/08/09 00:26:01;;;;;;;2.53;1.90;;;13.70;99.90;;;;;;4994937;28;20673;-79
2023/08/09 00:28:27;;;;;;;5.75;2.22;;;13.70;99.90;;;;;;4998037;28;20479;-81
2023/08/09 00:30:52;;;;;;;5.53;1.88;;;13.70;99.90;;;;;;4978263;28;20053;-81
2023/08/09 00:33:18;;;;;;;5.90;1.55;;;13.70;99.90;;;;;;4993731;28;20035;-80
2023/08/09 00:35:45;;;;;;;2.83;1.77;;;13.70;99.90;;;;;;4985130;28;20113;-80
2023/08/09 00:38:11;;;;;;;5.05;1.80;;;13.70;99.90;;;;;;5003386;28;20030;-82
2023/08/09 00:40:37;;;;;;;3.90;1.80;;;13.70;99.90;;;;;;4977414;28;20072;-81
2023/08/09 00:43:03;;;;;;;3.28;2.05;;;13.60;99.90;;;;;;4971507;28;20038;-80
2023/08/09 00:45:29;;;;;;;4.70;2.33;;;13.50;99.90;;;;;;4990547;28;20046;-80
2023/08/09 00:47:55;;;;;;;5.03;2.60;;;13.40;99.90;;;;;;4992475;28;20034;-80
2023/08/09 00:50:21;;;;;;;4.07;2.60;;;13.30;99.90;;;;;;4974873;28;20518;-80
2023/08/09 00:52:48;;;;;;;7.47;2.92;;;13.20;99.90;;;;;;4971243;28;20076;-80
2023/08/09 00:55:13;;;;;;;5.45;3.05;;;13.20;99.90;;;;;;4990739;28;20096;-84
2023/08/09 00:57:39;;;;;;;7.90;3.28;;;13.10;99.90;;;;;;4973505;28;20043;-82
2023/08/09 01:00:06;;;;;;;4.18;3.28;;;13.10;99.90;;;;;;4954731;28;20035;-80
2023/08/09 01:02:32;;;;;;;5.03;3.53;;;13.00;99.90;;;;;;4982917;28;20417;-83
2023/08/09 01:04:58;;;;;;;6.18;3.53;;;13.00;99.90;;;;;;4990729;28;20034;-81
2023/08/09 01:07:45;;;;;;;4.20;3.80;;;13.00;99.90;;;;;;4985795;28;20073;-81
2023/08/09 01:10:14;;;;;;;4.85;3.83;;;13.00;99.90;;;;;;4990341;28;20061;-81
2023/08/09 01:12:45;;;;;;;8.10;3.53;;;13.00;99.90;;;;;;4971268;28;21005;-79
2023/08/09 01:15:15;;;;;;;11.20;4.10;;;12.90;99.90;;;;;;4975503;28;20038;-81
2023/08/09 01:17:41;;;;;;;11.27;4.25;;;12.90;99.90;;;;;;4977211;28;20043;-81
2023/08/09 01:20:11;;;;;;;6.38;4.25;;;12.90;99.90;;;;;;4982893;28;20046;-81
2023/08/09 01:22:44;;;;;;;5.53;4.40;;;12.80;99.90;;;;;;4969499;28;20035;-81
2023/08/09 01:25:11;;;;;;;5.72;4.00;;;12.80;99.90;;;;;;4987958;28;20034;-81
2023/08/09 01:27:37;;;;;;;7.70;4.22;;;12.80;99.90;;;;;;4992784;28;20061;-81
2023/08/09 01:30:06;;;;;;;7.95;4.90;;;12.80;99.90;;;;;;4995156;28;20030;-81
2023/08/09 01:32:33;;;;;;;10.75;5.22;;;12.70;99.90;;;;;;4956594;28;20042;-82
2023/08/09 01:34:59;;;;;;;7.28;4.63;;;12.70;99.90;;;;;;4989583;28;20054;-82
2023/08/09 01:37:42;;;;;;;9.23;4.75;;;12.70;99.90;;;;;;4994378;28;20538;-80
2023/08/09 01:40:11;;;;;;;6.88;4.70;;;12.70;99.90;;;;;;4994305;28;20039;-81
2023/08/09 01:42:39;;;;;;;7.90;5.03;;;12.60;99.90;;;;;;4991446;28;20022;-80
2023/08/09 01:45:06;;;;;;;7.00;4.85;;;12.60;99.90;;;;;;4994371;28;20026;-80
2023/08/09 01:47:33;;;;;;;10.38;4.40;;;12.60;99.90;;;;;;4971021;28;20034;-81
2023/08/09 01:49:59;;;;;;;9.30;4.50;;;12.60;99.90;;;;;;4974576;28;20491;-81
2023/08/09 01:52:25;;;;;;;9.43;4.90;;;12.60;99.90;;;;;;4989925;28;20114;-81
2023/08/09 01:54:51;;;;;;;9.52;5.20;;;12.60;99.90;;;;;;4991311;28;20058;-81
2023/08/09 01:57:17;;;;;;;6.60;5.10;;;12.60;99.90;;;;;;4986389;28;20126;-79
2023/08/09 01:59:44;;;;;;;5.22;4.60;;;12.60;99.90;;;;;;4959226;28;20518;-81
2023/08/09 02:02:11;;;;;;;8.50;4.90;;;12.60;99.90;;;;;;4965565;28;20419;-80
2023/08/09 02:04:37;;;;;;;7.30;4.82;;;12.60;99.90;;;;;;4970347;28;20042;-82
2023/08/09 02:07:04;;;;;;;7.95;5.32;;;12.60;99.90;;;;;;4974673;28;20042;-80
2023/08/09 02:09:30;;;;;;;7.22;4.85;;;12.70;99.90;;;;;;4981416;28;20050;-82
2023/08/09 02:11:57;;;;;;;7.25;4.82;;;12.60;99.90;;;;;;4969747;28;20027;-82
2023/08/09 02:14:27;;;;;;;7.47;5.00;;;12.70;99.90;;;;;;4971860;28;20083;-82
2023/08/09 02:16:53;;;;;;;35.58;6.45;;;12.70;99.90;;;;;;4976373;28;20384;-80
2023/08/09 02:19:19;;;;;;;10.18;5.20;;;12.70;99.90;;;;;;4986589;28;20045;-82
2023/08/09 02:21:45;;;;;;;7.13;5.15;;;12.70;99.90;;;;;;4956457;28;20073;-81
2023/08/09 02:24:12;;;;;;;8.38;5.30;;;12.70;99.90;;;;;;4974633;28;20060;-80
2023/08/09 02:26:42;;;;;;;9.00;5.25;;;12.80;99.90;;;;;;4985287;28;20087;-80
2023/08/09 02:29:08;;;;;;;7.15;5.20;;;12.80;99.90;;;;;;4971244;28;20050;-80
2023/08/09 02:31:34;;;;;;;7.63;5.18;;;12.80;99.90;;;;;;4971125;28;20034;-83
2023/08/09 02:34:00;;;;;;;30.55;6.25;;;12.80;99.90;;;;;;4992378;28;20076;-82
2023/08/09 02:36:26;;;;;;;9.30;5.53;;;12.90;99.90;;;;;;4976856;28;20034;-81
2023/08/09 02:38:53;;;;;;;9.15;5.70;;;12.90;99.90;;;;;;4967068;28;20165;-81
2023/08/09 02:41:20;;;;;;;6.88;5.78;;;12.90;99.90;;;;;;4959262;28;20066;-82
2023/08/09 02:43:45;;;;;;;8.60;5.55;;;12.90;99.90;;;;;;4960642;28;20046;-82
2023/08/09 02:46:12;;;;;;;6.80;4.93;;;12.90;99.90;;;;;;4973532;28;20034;-79
2023/08/09 02:48:39;;;;;;;13.90;5.55;;;12.90;99.90;;;;;;4969512;28;20042;-80
2023/08/09 02:51:05;;;;;;;13.85;5.15;;;12.90;99.90;;;;;;4967498;28;20034;-81
2023/08/09 02:53:55;;;;;;;13.55;4.95;;;13.00;99.90;;;;;;4964863;28;20041;-81
2023/08/09 02:56:21;;;;;;;6.05;4.78;;;13.00;99.90;;;;;;4982027;28;20039;-81
2023/08/09 02:58:47;;;;;;;7.38;4.78;;;13.00;99.90;;;;;;4975319;28;20029;-80
2023/08/09 03:01:13;;;;;;;5.97;4.32;;;13.00;99.90;;;;;;4956626;28;20084;-81
2023/08/09 03:03:39;;;;;;;5.35;4.43;;;13.00;99.90;;;;;;4985129;28;20119;-80
2023/08/09 03:06:05;;;;;;;6.85;4.82;;;13.00;99.90;;;;;;4960754;28;20038;-80
2023/08/09 03:08:31;;;;;;;32.83;5.97;;;13.00;99.90;;;;;;4974651;28;20037;-80
2023/08/09 03:10:57;;;;;;;9.75;4.57;;;13.00;99.90;;;;;;4971156;28;20394;-80
2023/08/09 03:13:23;;;;;;;185.90;12.32;;;13.00;99.90;;;;;;4970608;28;20125;-82
2023/08/09 03:15:49;;;;;;;68.82;7.70;;;13.00;99.90;;;;;;4986655;28;20085;-80
2023/08/09 03:18:14;;;;;;;115.18;9.05;;;13.10;99.90;;;;;;4992470;28;20041;-80
2023/08/09 03:20:59;;;;;;;69.35;7.03;;;13.10;99.90;;;;;;4990752;28;20101;-81
2023/08/09 03:23:25;;;;;;;33.47;6.00;;;13.10;99.90;;;;;;4987704;28;20034;-79
2023/08/09 03:25:52;;;;;;;79.78;9.57;;;13.10;99.90;;;;;;4975956;28;20051;-81
2023/08/09 03:28:18;;;;;;;41.08;6.95;;;13.10;99.90;;;;;;4975194;28;20045;-81
2023/08/09 03:30:44;;;;;;;42.63;6.20;;;13.10;99.90;;;;;;4983896;28;20031;-80
2023/08/09 03:33:09;;;;;;;7.70;4.90;;;13.10;99.90;;;;;;4993907;28;20027;-81
2023/08/09 03:35:35;;;;;;;9.85;5.05;;;13.10;99.90;;;;;;4956832;28;20064;-80
2023/08/09 03:38:01;;;;;;;145.43;13.38;;;13.10;99.90;;;;;;4995899;28;20035;-80
2023/08/09 03:40:27;;;;;;;6.13;5.10;;;13.10;99.90;;;;;;4972568;28;20034;-79
2023/08/09 03:42:54;;;;;;;7.07;5.75;;;13.10;99.90;;;;;;4971072;28;20030;-81
2023/08/09 03:45:22;;;;;;;6.45;5.38;;;13.10;99.90;;;;;;4972907;28;20073;-80
2023/08/09 03:47:48;;;;;;;7.65;5.57;;;13.10;99.90;;;;;;4996057;28;20038;-81
2023/08/09 03:50:14;;;;;;;41.97;7.05;;;13.10;99.90;;;;;;4992778;28;20479;-81
2023/08/09 03:52:41;;;;;;;61.33;8.23;;;13.20;99.90;;;;;;4970177;28;20043;-81
2023/08/09 03:55:08;;;;;;;42.53;7.53;;;13.10;99.90;;;;;;4998600;28;20029;-79
2023/08/09 03:57:34;;;;;;;7.90;5.68;;;13.10;99.90;;;;;;4977027;28;20105;-79
2023/08/09 04:00:02;;;;;;;8.25;6.25;;;13.10;99.90;;;;;;4978312;28;20036;-80
2023/08/09 04:02:37;;;;;;;27.52;7.28;;;13.10;99.90;;;;;;4992135;28;20113;-80
2023/08/09 04:05:05;;;;;;;15.05;6.63;;;13.20;99.90;;;;;;4971050;28;20084;-80
2023/08/09 04:07:31;;;;;;;21.63;6.43;;;13.20;99.90;;;;;;4983980;28;20052;-81
2023/08/09 04:09:57;;;;;;;9.27;6.85;;;13.20;99.90;;;;;;4992524;28;20739;-81
2023/08/09 04:12:23;;;;;;;9.77;6.65;;;13.20;99.90;;;;;;4996546;28;20084;-80
2023/08/09 04:14:48;;;;;;;9.18;6.88;;;13.20;99.90;;;;;;4986936;28;20035;-80
2023/08/09 04:17:33;;;;;;;16.38;6.80;;;13.20;99.90;;;;;;4993527;28;20050;-80
2023/08/09 04:20:00;;;;;;;8.40;5.80;;;13.20;99.90;;;;;;4978996;28;20030;-81
2023/08/09 04:22:26;;;;;;;6.82;6.13;;;13.20;99.90;;;;;;4992040;28;20049;-79
2023/08/09 04:24:51;;;;;;;7.93;6.15;;;13.10;99.90;;;;;;4992144;28;20049;-79
2023/08/09 04:27:17;;;;;;;10.48;6.03;;;13.10;99.90;;;;;;4991464;28;20113;-80
2023/08/09 04:29:43;;;;;;;10.95;5.68;;;13.10;99.90;;;;;;4998036;28;20038;-80
2023/08/09 04:32:09;;;;;;;7.88;5.78;;;13.10;99.90;;;;;;4993727;28;20025;-79
2023/08/09 04:34:35;;;;;;;10.38;6.30;;;13.10;99.90;;;;;;4993745;28;20033;-79
2023/08/09 04:37:00;;;;;;;53.00;7.40;;;13.20;99.90;;;;;;4995352;28;20483;-81
2023/08/09 04:39:26;;;;;;;38.53;7.22;;;13.20;99.90;;;;;;4989922;28;20034;-79
2023/08/09 04:41:53;;;;;;;132.63;12.82;;;13.20;99.90;;;;;;4994358;28;20110;-79
2023/08/09 04:44:20;;;;;;;107.35;11.65;;;13.20;99.90;;;;;;4990940;28;20038;-77
2023/08/09 04:46:45;;;;;;;79.75;9.63;;;13.20;99.90;;;;;;4980571;28;20054;-79
2023/08/09 04:49:12;;;;;;;9.73;6.07;;;13.20;99.90;;;;;;4988128;28;20053;-79
2023/08/09 04:51:38;;;;;;;78.15;9.35;;;13.20;99.90;;;;;;4996585;28;20076;-78
2023/08/09 04:54:06;;;;;;;30.55;7.00;;;13.20;99.90;;;;;;4978592;28;20086;-81
2023/08/09 04:56:32;;;;;;;8.50;5.80;;;13.20;99.90;;;;;;4996901;28;20491;-79
2023/08/09 04:58:58;;;;;;;12.38;6.90;;;13.20;99.90;;;;;;4996066;28;20042;-79
2023/08/09 05:01:24;;;;;;;25.38;7.18;;;13.20;99.90;;;;;;4973792;28;20038;-80
2023/08/09 05:03:50;;;;;;;8.77;6.50;;;13.20;99.90;;;;;;4993596;28;20655;-80
2023/08/09 05:06:16;;;;;;;17.75;6.90;;;13.20;99.90;;;;;;4995294;28;20042;-81
2023/08/09 05:08:42;;;;;;;7.93;5.85;;;13.20;99.90;;;;;;4999390;28;20030;-80
2023/08/09 05:11:08;;;;;;;7.07;5.80;;;13.20;99.90;;;;;;4993669;28;20464;-81
2023/08/09 05:13:33;;;;;;;7.13;6.13;;;13.20;99.90;;;;;;4994850;28;20034;-80
2023/08/09 05:15:59;;;;;;;53.08;8.27;;;13.20;99.90;;;;;;4994697;28;20027;-80
2023/08/09 05:18:25;;;;;;;6.65;5.65;;;13.20;99.90;;;;;;4993034;28;20027;-79
2023/08/09 05:20:51;;;;;;;6.82;5.88;;;13.20;99.90;;;;;;4991546;28;20406;-79
2023/08/09 05:23:16;;;;;;;7.85;6.30;;;13.20;99.90;;;;;;4995276;28;20031;-80
2023/08/09 05:25:42;;;;;;;9.25;6.47;;;13.20;99.90;;;;;;4987441;28;20612;-78
2023/08/09 05:28:08;;;;;;;8.52;6.07;;;13.20;99.90;;;;;;4993796;28;20065;-81
2023/08/09 05:30:34;;;;;;;10.82;6.20;;;13.20;99.90;;;;;;4994231;28;20043;-80
2023/08/09 05:33:00;;;;;;;6.38;5.43;;;13.30;99.90;;;;;;4974163;28;20042;-80
2023/08/09 05:35:29;;;;;;;8.30;5.72;;;13.30;99.90;;;;;;4990159;28;20051;-79
2023/08/09 05:37:54;;;;;;;7.20;6.50;;;13.20;99.90;;;;;;4992094;28;20348;-80
2023/08/09 05:40:20;;;;;;;6.93;6.22;;;13.30;99.90;;;;;;4992592;28;20048;-80
2023/08/09 05:42:46;;;;;;;6.60;6.00;;;13.30;99.90;;;;;;4989903;28;20066;-80
2023/08/09 05:45:12;;;;;;;7.25;5.80;;;13.30;99.90;;;;;;4989199;28;20037;-80
2023/08/09 05:47:38;;;;;;;9.65;5.63;;;13.30;99.90;;;;;;4995807;28;20041;-79
2023/08/09 05:50:05;;;;;;;32.92;7.25;;;13.40;99.90;;;;;;4990043;28;20038;-79
2023/08/09 05:52:31;;;;;;;8.88;5.78;;;13.30;99.90;;;;;;4987959;28;20035;-80
2023/08/09 05:54:57;;;;;;;9.48;6.18;;;13.30;99.90;;;;;;4990653;28;20852;-79
2023/08/09 05:57:23;;;;;;;8.27;5.57;;;13.40;99.90;;;;;;4993836;28;20506;-79
2023/08/09 05:59:49;;;;;;;7.90;5.57;;;13.40;99.90;;;;;;4988455;28;20045;-80
2023/08/09 06:02:15;;;;;;;7.30;5.85;;;13.40;99.90;;;;;;4982905;28;20054;-79
2023/08/09 06:04:43;;;;;;;15.52;5.95;;;13.40;99.90;;;;;;4997148;28;20065;-80
2023/08/09 06:07:09;;;;;;;95.07;10.65;;;13.40;99.90;;;;;;4970939;28;20065;-80
2023/08/09 06:09:35;;;;;;;12.38;5.93;;;13.40;99.90;;;;;;4996595;28;20034;-80
2023/08/09 06:12:04;;;;;;;364.42;23.42;;;13.40;99.90;;;;;;4993440;28;20058;-80
2023/08/09 06:14:30;;;;;;;6.78;5.18;;;13.50;99.90;;;;;;4977580;28;20873;-79
2023/08/09 06:16:56;;;;;;;20.30;6.95;;;13.40;99.90;;;;;;4987185;28;20093;-79
2023/08/09 06:19:22;;;;;;;7.10;6.00;;;13.50;99.90;;;;;;4990763;28;20488;-80
2023/08/09 06:21:48;;;;;;;6.80;5.40;;;13.40;99.90;;;;;;4990695;28;20054;-80
2023/08/09 06:24:14;;;;;;;9.95;6.30;;;13.40;99.90;;;;;;4995357;28;20511;-80
2023/08/09 06:26:40;;;;;;;19.90;6.72;;;13.50;99.90;;;;;;4975710;28;20038;-80
2023/08/09 06:29:06;;;;;;;6.63;5.85;;;13.50;99.90;;;;;;4993764;28;20030;-78
2023/08/09 06:31:31;;;;;;;7.93;5.15;;;13.50;99.90;;;;;;4977956;28;20553;-79
2023/08/09 06:33:58;;;;;;;5.32;4.53;;;13.50;99.90;;;;;;4996062;28;20037;-79
2023/08/09 06:36:24;;;;;;;7.60;4.90;;;13.60;99.90;;;;;;4991302;28;20517;-79
2023/08/09 06:38:49;;;;;;;5.35;4.65;;;13.60;99.90;;;;;;4993001;28;20080;-80
2023/08/09 06:41:15;;;;;;;7.35;4.65;;;13.60;99.90;;;;;;4990688;28;20030;-79
2023/08/09 06:43:41;;;;;;;10.48;4.75;;;13.60;99.90;;;;;;4988954;28;20046;-78
2023/08/09 06:46:07;;;;;;;20.60;4.82;;;13.60;99.90;;;;;;4991573;28;20041;-80
2023/08/09 06:48:33;;;;;;;57.17;6.45;;;13.70;99.90;;;;;;4994422;28;20050;-80
2023/08/09 06:51:00;;;;;;;10.80;4.20;;;13.70;99.90;;;;;;4991119;28;20080;-81
2023/08/09 06:53:26;;;;;;;6.53;4.00;;;13.70;99.90;;;;;;4983875;28;20133;-80
2023/08/09 06:56:10;;;;;;;22.05;4.95;;;13.70;99.90;;;;;;4990625;28;20061;-79
2023/08/09 06:58:36;;;;;;;10.95;5.03;;;13.70;99.90;;;;;;4992978;28;20027;-80
2023/08/09 07:01:03;;;;;;;6.15;4.63;;;13.70;99.90;;;;;;4990753;28;20031;-80
2023/08/09 07:03:29;;;;;;;14.48;4.43;;;13.70;99.90;;;;;;4993327;28;20065;-80
2023/08/09 07:05:54;;;;;;;87.95;8.80;;;13.80;99.90;;;;;;4990728;28;20027;-80
2023/08/09 07:08:21;;;;;;;5.63;4.38;;;13.90;99.90;;;;;;4988256;28;20582;-80
2023/08/09 07:10:47;;;;;;;6.30;4.38;;;13.90;99.90;;;;;;4986322;28;20038;-79
2023/08/09 07:13:12;;;;;;;14.05;4.35;;;14.00;99.90;;;;;;4988702;28;20157;-80
2023/08/09 07:15:39;;;;;;;4.63;3.92;;;14.00;99.90;;;;;;4994016;28;20035;-80
2023/08/09 07:18:05;;;;;;;6.60;3.85;;;14.10;99.90;;;;;;4993285;28;20034;-79
2023/08/09 07:20:31;;;;;;;5.20;4.13;;;14.20;99.90;;;;;;5000543;28;20553;-80
2023/08/09 07:22:56;;;;;;;13.70;4.30;;;14.20;99.90;;;;;;4998691;28;20065;-81
2023/08/09 07:25:22;;;;;;;6.03;4.07;;;14.20;99.90;;;;;;4996244;28;20820;-80
2023/08/09 07:27:49;;;;;;;14.88;4.35;;;14.20;99.90;;;;;;4995873;28;20041;-82
2023/08/09 07:30:16;;;;;;;8.63;3.78;;;14.30;99.90;;;;;;4994666;28;20038;-80
2023/08/09 07:32:43;;;;;;;4.65;3.22;;;14.30;99.90;;;;;;5000360;28;20049;-80
2023/08/09 07:35:10;;;;;;;5.40;3.50;;;14.30;99.90;;;;;;5001752;28;20034;-80
2023/08/09 07:37:40;;;;;;;6.75;3.47;;;14.30;99.90;;;;;;4985369;28;20502;-80
2023/08/09 07:40:07;;;;;;;7.60;3.70;;;14.20;99.90;;;;;;4998582;28;20418;-78
2023/08/09 07:42:34;;;;;;;9.57;3.70;;;14.20;99.90;;;;;;4998210;28;20117;-80
2023/08/09 07:45:00;;;;;;;4.32;3.78;;;14.20;99.90;;;;;;4994293;28;20498;-80
2023/08/09 07:47:26;;;;;;;4.63;3.30;;;14.30;99.90;;;;;;4997494;28;20042;-80
2023/08/09 07:49:52;;;;;;;9.10;4.35;;;14.20;99.90;;;;;;4997448;28;20045;-80
2023/08/09 07:52:18;;;;;;;4.60;3.33;;;14.30;99.90;;;;;;4994791;28;20045;-81
2023/08/09 07:55:05;;;;;;;9.45;3.75;;;14.30;99.90;;;;;;4998798;28;20049;-81
2023/08/09 07:57:30;;;;;;;22.45;3.72;;;14.40;99.90;;;;;;4997038;28;20077;-79
2023/08/09 07:59:56;;;;;;;8.75;3.05;;;14.30;99.90;;;;;;4996170;28;20034;-79
2023/08/09 08:02:22;;;;;;;30.80;4.13;;;14.40;99.90;;;;;;4999729;28;20114;-81
2023/08/09 08:04:48;;;;;;;7.05;4.57;;;14.50;99.90;;;;;;4991261;28;20031;-81
2023/08/09 08:07:14;;;;;;;6.18;3.55;;;14.50;99.90;;;;;;4995648;28;20057;-80
2023/08/09 08:09:43;;;;;;;4.25;3.17;;;14.50;99.90;;;;;;5001920;28;20038;-81
2023/08/09 08:12:11;;;;;;;5.13;3.10;;;14.50;99.90;;;;;;4977555;28;20070;-80
2023/08/09 08:14:37;;;;;;;7.97;3.47;;;14.50;99.90;;;;;;4994492;28;20030;-80
2023/08/09 08:17:03;;;;;;;3.15;2.83;;;14.50;99.90;;;;;;4998107;28;20018;-80
2023/08/09 08:19:29;;;;;;;5.05;2.50;;;14.50;99.90;;;;;;4981120;28;20141;-80
2023/08/09 08:21:55;;;;;;;1.90;1.30;;;14.50;99.90;;;;;;4997914;28;20045;-79
2023/08/09 08:24:21;;;;;;;2.45;1.40;;;14.50;99.90;;;;;;5000822;28;20818;-81
2023/08/09 08:26:46;;;;;;;1.17;0.90;;;14.30;99.90;;;;;;5001374;28;20539;-80
2023/08/09 08:29:12;;;;;;;1.15;0.70;;;14.20;99.90;;;;;;4997700;28;20558;-80
2023/08/09 08:31:38;;;;;;;1.48;0.60;;;14.10;99.90;;;;;;4962152;28;20030;-81
2023/08/09 08:34:05;;;;;;;0.88;0.60;;;14.00;99.90;;;;;;4997212;28;20049;-80
2023/08/09 08:36:30;;;;;;;1.13;0.90;;;14.00;99.90;;;;;;4997138;28;20038;-80
2023/08/09 08:38:57;;;;;;;1.92;0.88;;;13.90;99.90;;;;;;4995388;28;20031;-81
2023/08/09 08:41:23;;;;;;;1.77;1.02;;;13.90;99.90;;;;;;4992180;28;20034;-81
2023/08/09 08:43:50;;;;;;;1.35;0.80;;;13.90;99.90;;;;;;4995177;28;20058;-80
2023/08/09 08:46:19;;;;;;;1.98;0.93;;;14.00;99.90;;;;;;4993188;28;20477;-78
2023/08/09 08:48:47;;;;;;;0.90;0.77;;;14.00;99.90;;;;;;4994137;28;20026;-79
2023/08/09 08:51:14;;;;;;;1.52;0.80;;;14.00;99.90;;;;;;4977091;28;20042;-80
2023/08/09 08:53:41;;;;;;;1.17;0.70;;;14.00;99.90;;;;;;4985535;28;20022;-81
2023/08/09 08:56:07;;;;;;;1.20;0.73;;;14.10;99.90;;;;;;4997561;28;20033;-80
2023/08/09 08:58:33;;;;;;;0.60;0.60;;;14.10;99.90;;;;;;4997419;28;20080;-80
2023/08/09 09:01:00;;;;;;;0.60;0.57;;;14.10;99.90;;;;;;4977692;28;20037;-78
2023/08/09 09:03:26;;;;;;;0.70;0.70;;;14.10;99.90;;;;;;4962211;28;20030;-79
2023/08/09 09:05:52;;;;;;;0.68;0.68;;;14.10;99.90;;;;;;4976674;28;20407;-80
2023/08/09 09:08:18;;;;;;;0.93;0.50;;;14.10;99.90;;;;;;4989718;28;20058;-79
2023/08/09 09:10:45;;;;;;;0.73;0.60;;;14.10;99.90;;;;;;4989570;28;20046;-78
2023/08/09 09:13:28;;;;;;;0.70;0.70;;;14.20;99.90;;;;;;4989602;28;20077;-81
2023/08/09 09:15:54;;;;;;;0.73;0.68;;;14.20;99.90;;;;;;4983390;28;20353;-79
2023/08/09 09:18:21;;;;;;;1.00;0.80;;;14.30;99.90;;;;;;4991049;28;20888;-80
2023/08/09 09:20:47;;;;;;;1.15;0.57;;;14.40;99.90;;;;;;4983709;28;20027;-79
2023/08/09 09:23:27;;;;;;;0.90;0.80;;;14.50;99.90;;;;;;4987348;28;20652;-80
2023/08/09 09:26:05;;;;;;;1.58;0.77;;;14.60;99.90;;;;;;4989571;28;20057;-79
2023/08/09 09:28:41;;;;;;;0.75;0.75;;;14.60;99.90;;;;;;4985138;28;20246;-79
2023/08/09 09:31:08;;;;;;;0.98;0.50;;;14.70;99.90;;;;;;4982649;28;20510;-79
2023/08/09 09:33:35;;;;;;;0.43;0.40;;;14.80;99.90;;;;;;4969997;28;20535;-79
2023/08/09 09:36:02;;;;;;;1.67;0.50;;;14.80;99.90;;;;;;4991045;28;20037;-80
2023/08/09 09:38:29;;;;;;;0.40;0.40;;;14.90;99.90;;;;;;4974950;28;20034;-79
2023/08/09 09:40:56;;;;;;;2.35;0.50;;;15.00;99.90;;;;;;4985951;28;20035;-80
2023/08/09 09:43:23;;;;;;;0.47;0.32;;;15.00;99.90;;;;;;4983655;28;20093;-79
2023/08/09 09:45:56;;;;;;;0.52;0.52;;;15.10;99.90;;;;;;4980484;28;20518;-78
2023/08/09 09:48:23;;;;;;;1.00;0.43;;;15.10;99.90;;;;;;4966472;28;20034;-79
2023/08/09 09:50:49;;;;;;;0.38;0.38;;;15.00;99.90;;;;;;4980060;28;20051;-80
2023/08/09 09:53:17;;;;;;;0.77;0.40;;;15.00;99.90;;;;;;4980612;28;20035;-79
2023/08/09 09:55:43;;;;;;;0.40;0.40;;;15.00;99.90;;;;;;4983414;28;20011;-79
2023/08/09 09:58:09;;;;;;;0.43;0.43;;;14.90;99.90;;;;;;4987548;28;20049;-81
2023/08/09 10:00:37;;;;;;;0.25;0.25;;;14.90;99.90;;;;;;4957608;28;20034;-80
2023/08/09 10:03:04;;;;;;;0.45;0.45;;;14.90;99.90;;;;;;4971989;28;20069;-79
2023/08/09 10:05:35;;;;;;;0.22;0.22;;;15.00;99.90;;;;;;4982851;28;20535;-79
2023/08/09 10:08:07;;;;;;;0.28;0.28;;;15.10;99.90;;;;;;4986227;28;20045;-79
2023/08/09 10:10:34;;;;;;;0.50;0.30;;;15.20;99.90;;;;;;4985384;28;20407;-79
2023/08/09 10:13:03;;;;;;;1.30;0.40;;;15.20;99.90;;;;;;4986754;28;20251;-79
2023/08/09 10:15:34;;;;;;;0.47;0.38;;;15.30;99.90;;;;;;4980279;28;20057;-81
2023/08/09 10:18:18;;;;;;;1.83;0.40;;;15.40;99.90;;;;;;4978049;28;20102;-80
2023/08/09 10:20:51;;;;;;;1.60;0.50;;;15.60;99.90;;;;;;4986317;28;20069;-80
2023/08/09 10:23:24;;;;;;;2.15;0.50;;;15.70;99.90;;;;;;4991073;28;20060;-80
2023/08/09 10:25:50;;;;;;;0.73;0.40;;;15.90;99.90;;;;;;4983634;28;20611;-80
2023/08/09 10:28:17;;;;;;;0.40;0.40;;;15.90;99.90;;;;;;4990341;28;20485;-80
2023/08/09 10:30:48;;;;;;;1.27;0.60;;;16.00;99.90;;;;;;4985678;28;20023;-81
2023/08/09 10:33:18;;;;;;;1.13;0.50;;;16.00;99.90;;;;;;4965267;28;20034;-80
2023/08/09 10:35:44;;;;;;;1.10;0.50;;;16.10;99.90;;;;;;4980796;28;20407;-81
2023/08/09 10:38:37;;;;;;;0.65;0.60;;;16.00;99.90;;;;;;4975399;28;20093;-79
2023/08/09 10:41:12;;;;;;;1.30;1.20;;;16.10;99.90;;;;;;4974005;28;20031;-79
2023/08/09 10:43:39;;;;;;;1.10;0.75;;;16.20;99.90;;;;;;4979940;28;20104;-79
2023/08/09 10:46:18;;;;;;;0.57;0.57;;;16.30;99.90;;;;;;4974475;28;20027;-77
2023/08/09 10:48:51;;;;;;;3.55;0.60;;;16.40;99.90;;;;;;4987609;28;20026;-79
2023/08/09 10:51:22;;;;;;;0.50;0.50;;;16.60;99.90;;;;;;4983248;28;20597;-80
2023/08/09 10:53:58;;;;;;;1.05;0.70;;;16.80;99.90;;;;;;4988943;28;20118;-81
2023/08/09 10:56:47;;;;;;;2.05;0.80;;;16.90;99.90;;;;;;4982737;28;20113;-80
2023/08/09 10:59:33;;;;;;;0.52;0.52;;;16.90;99.90;;;;;;4986221;28;20053;-80
2023/08/09 11:01:58;;;;;;;2.70;1.45;;;16.90;99.90;;;;;;4987459;28;20055;-81
2023/08/09 11:04:24;;;;;;;1.00;0.88;;;16.80;99.90;;;;;;4988255;28;20037;-81
2023/08/09 11:06:50;;;;;;;1.52;0.80;;;16.80;99.90;;;;;;4981031;28;20038;-80
2023/08/09 11:09:18;;;;;;;1.48;1.02;;;17.00;99.90;;;;;;4983500;28;20062;-79
2023/08/09 11:11:48;;;;;;;0.77;0.77;;;17.20;99.90;;;;;;4971830;28;20483;-81
2023/08/09 11:14:15;;;;;;;1.00;1.00;;;17.30;99.90;;;;;;4988417;28;20133;-79
2023/08/09 11:16:42;;;;;;;0.90;0.90;;;17.40;99.90;;;;;;4972404;28;20041;-80
2023/08/09 11:19:09;;;;;;;0.95;0.80;;;17.50;99.90;;;;;;4988849;28;20018;-79
2023/08/09 11:21:50;;;;;;;0.90;0.90;;;17.60;99.90;;;;;;4989654;28;20038;-79
2023/08/09 11:24:18;;;;;;;1.20;0.75;;;17.50;99.90;;;;;;4986464;28;20463;-79
2023/08/09 11:26:58;;;;;;;0.80;0.80;;;17.50;99.90;;;;;;4985945;28;20510;-79
2023/08/09 11:29:26;;;;;;;0.90;0.90;;;17.80;99.90;;;;;;4989893;28;20037;-79
2023/08/09 11:31:54;;;;;;;0.73;0.70;;;17.80;99.90;;;;;;4986582;28;20038;-80
2023/08/09 11:34:22;;;;;;;0.70;0.70;;;17.80;99.90;;;;;;4983726;28;20035;-80
2023/08/09 11:36:50;;;;;;;0.98;0.90;;;17.70;99.90;;;;;;4984568;28;20019;-78
2023/08/09 11:39:16;;;;;;;1.05;0.80;;;17.70;99.90;;;;;;4970878;28;20512;-79
2023/08/09 11:41:55;;;;;;;0.90;0.90;;;17.80;99.90;;;;;;4983919;28;20031;-80
2023/08/09 11:44:22;;;;;;;0.88;0.73;;;17.90;99.90;;;;;;4988310;28;20038;-79
2023/08/09 11:46:52;;;;;;;0.50;0.50;;;17.90;99.90;;;;;;4974154;28;20051;-79
2023/08/09 11:49:17;;;;;;;0.60;0.60;;;18.10;99.90;;;;;;4981226;28;20069;-79
2023/08/09 11:51:43;;;;;;;1.33;0.40;;;18.10;99.90;;;;;;4964241;28;20061;-80
2023/08/09 11:54:09;;;;;;;0.60;0.60;;;18.10;99.90;;;;;;4981304;28;20073;-79
2023/08/09 11:56:36;;;;;;;0.88;0.50;;;18.20;99.90;;;;;;4984276;28;20655;-79
2023/08/09 11:59:04;;;;;;;0.90;0.70;;;18.20;99.90;;;;;;4980831;28;20026;-80
2023/08/09 12:01:34;;;;;;;0.82;0.82;;;18.20;99.90;;;;;;4982415;28;20039;-77
2023/08/09 12:04:05;;;;;;;1.50;0.60;;;18.30;99.90;;;;;;4986113;28;20031;-80
2023/08/09 12:06:59;;;;;;;3.13;1.13;;;18.40;99.90;;;;;;4991729;28;20057;-80
2023/08/09 12:09:35;;;;;;;2.67;0.88;;;18.60;99.90;;;;;;4991511;28;20042;-79
2023/08/09 12:12:18;;;;;;;0.63;0.63;;;18.80;99.90;;;;;;4984048;28;20031;-79
2023/08/09 12:14:49;;;;;;;0.70;0.70;;;19.00;99.90;;;;;;4990339;28;20034;-80
2023/08/09 12:17:19;;;;;;;1.23;0.55;;;19.20;99.90;;;;;;4987953;28;20102;-79
2023/08/09 12:19:45;;;;;;;1.67;1.15;;;19.20;99.90;;;;;;4992702;28;20037;-79
2023/08/09 12:22:11;;;;;;;0.85;0.60;;;19.30;99.90;;;;;;4985048;28;20046;-79
2023/08/09 12:24:36;;;;;;;1.10;0.73;;;19.30;99.90;;;;;;4993779;28;20133;-79
2023/08/09 12:27:03;;;;;;;1.65;0.68;;;19.40;99.90;;;;;;4996466;28;20088;-80
2023/08/09 12:29:30;;;;;;;1.80;1.15;;;19.50;99.90;;;;;;4975428;28;20034;-81
2023/08/09 12:31:55;;;;;;;2.15;0.80;;;19.30;99.90;;;;;;4987398;28;20114;-80
2023/08/09 12:34:21;;;;;;;0.60;0.60;;;19.30;99.90;;;;;;4985208;28;20117;-79
2023/08/09 12:36:47;;;;;;;1.75;0.70;;;19.40;99.90;;;;;;4988907;28;20030;-81
2023/08/09 12:39:16;;;;;;;2.00;0.90;;;19.50;99.90;;;;;;4985519;28;20097;-80
2023/08/09 12:41:42;;;;;;;0.73;0.52;;;19.60;99.90;;;;;;4979506;28;20531;-82
2023/08/09 12:44:08;;;;;;;0.88;0.70;;;19.50;99.90;;;;;;4991571;28;20085;-80
2023/08/09 12:46:37;;;;;;;1.38;0.75;;;19.40;99.90;;;;;;4991681;28;20106;-81
2023/08/09 12:49:04;;;;;;;0.70;0.70;;;19.20;99.90;;;;;;4988502;28;20026;-81